sensor_id;sensor_type;location;lat;lon;timestamp;P1;durP1;ratioP1;P2;durP2;ratioP2
22929;SDS011;11630;42.660;23.292;2023-03-11T00:00:05;16.20;;;10.50;;
22929;SDS011;11630;42.660;23.292;2023-03-11T00:02:36;16.37;;;10.70;;
22929;SDS011;11630;42.660;23.292;2023-03-11T00:05:08;12.93;;;8.67;;
22929;SDS011;11630;42.660;23.292;2023-03-11T00:07:39;9.50;;;7.00;;
22929;SDS011;11630;42.660;23.292;2023-03-11T00:10:20;6.87;;;3.67;;
22929;SDS011;11630;42.660;23.292;2023-03-11T00:12:50;2.40;;;1.93;;
22929;SDS011;11630;42.660;23.292;2023-03-11T00:15:20;3.90;;;1.77;;
22929;SDS011;11630;42.660;23.292;2023-03-11T00:17:51;1.90;;;1.57;;
22929;SDS011;11630;42.660;23.292;2023-03-11T00:20:26;1.70;;;1.60;;
22929;SDS011;11630;42.660;23.292;2023-03-11T00:22:58;1.10;;;1.00;;
22929;SDS011;11630;42.660;23.292;2023-03-11T00:25:29;2.30;;;1.30;;
22929;SDS011;11630;42.660;23.292;2023-03-11T00:28:02;1.77;;;1.27;;
22929;SDS011;11630;42.660;23.292;2023-03-11T00:30:33;6.03;;;1.50;;
22929;SDS011;11630;42.660;23.292;2023-03-11T00:33:03;1.37;;;1.10;;
22929;SDS011;11630;42.660;23.292;2023-03-11T00:35:34;1.30;;;1.20;;
22929;SDS011;11630;42.660;23.292;2023-03-11T00:38:06;1.30;;;1.10;;
22929;SDS011;11630;42.660;23.292;2023-03-11T00:40:38;3.40;;;1.40;;
22929;SDS011;11630;42.660;23.292;2023-03-11T00:43:08;1.60;;;1.13;;
22929;SDS011;11630;42.660;23.292;2023-03-11T00:45:39;2.90;;;1.43;;
22929;SDS011;11630;42.660;23.292;2023-03-11T00:48:10;6.33;;;1.73;;
22929;SDS011;11630;42.660;23.292;2023-03-11T00:50:41;3.73;;;1.50;;
22929;SDS011;11630;42.660;23.292;2023-03-11T00:53:11;2.20;;;1.17;;
22929;SDS011;11630;42.660;23.292;2023-03-11T00:55:44;0.90;;;0.90;;
22929;SDS011;11630;42.660;23.292;2023-03-11T00:58:15;0.90;;;0.90;;
22929;SDS011;11630;42.660;23.292;2023-03-11T01:00:46;1.47;;;0.97;;
22929;SDS011;11630;42.660;23.292;2023-03-11T01:03:17;1.87;;;1.60;;
22929;SDS011;11630;42.660;23.292;2023-03-11T01:05:48;2.30;;;1.50;;
22929;SDS011;11630;42.660;23.292;2023-03-11T01:08:20;1.30;;;1.20;;
22929;SDS011;11630;42.660;23.292;2023-03-11T01:10:49;3.23;;;1.30;;
22929;SDS011;11630;42.660;23.292;2023-03-11T01:13:21;3.40;;;1.17;;
22929;SDS011;11630;42.660;23.292;2023-03-11T01:15:52;3.30;;;1.10;;
22929;SDS011;11630;42.660;23.292;2023-03-11T01:18:23;1.40;;;1.30;;
22929;SDS011;11630;42.660;23.292;2023-03-11T01:20:54;2.53;;;1.20;;
22929;SDS011;11630;42.660;23.292;2023-03-11T01:23:25;3.17;;;1.23;;
22929;SDS011;11630;42.660;23.292;2023-03-11T01:25:56;1.33;;;1.23;;
22929;SDS011;11630;42.660;23.292;2023-03-11T01:28:28;2.17;;;1.47;;
22929;SDS011;11630;42.660;23.292;2023-03-11T01:30:59;2.10;;;1.90;;
22929;SDS011;11630;42.660;23.292;2023-03-11T01:33:30;1.57;;;1.47;;
22929;SDS011;11630;42.660;23.292;2023-03-11T01:36:01;1.80;;;1.47;;
22929;SDS011;11630;42.660;23.292;2023-03-11T01:38:32;1.63;;;1.40;;
22929;SDS011;11630;42.660;23.292;2023-03-11T01:41:03;8.87;;;2.00;;
22929;SDS011;11630;42.660;23.292;2023-03-11T01:43:48;2.37;;;2.00;;
22929;SDS011;11630;42.660;23.292;2023-03-11T01:49:08;2.20;;;2.00;;
22929;SDS011;11630;42.660;23.292;2023-03-11T01:51:40;2.30;;;1.90;;
22929;SDS011;11630;42.660;23.292;2023-03-11T01:54:14;1.73;;;1.60;;
22929;SDS011;11630;42.660;23.292;2023-03-11T01:56:44;2.00;;;1.80;;
22929;SDS011;11630;42.660;23.292;2023-03-11T01:59:18;2.30;;;2.10;;
22929;SDS011;11630;42.660;23.292;2023-03-11T02:01:51;2.43;;;2.23;;
22929;SDS011;11630;42.660;23.292;2023-03-11T02:04:29;3.03;;;2.40;;
22929;SDS011;11630;42.660;23.292;2023-03-11T02:07:03;5.43;;;2.87;;
22929;SDS011;11630;42.660;23.292;2023-03-11T02:09:35;2.83;;;2.63;;
22929;SDS011;11630;42.660;23.292;2023-03-11T02:12:07;4.47;;;2.73;;
22929;SDS011;11630;42.660;23.292;2023-03-11T02:14:41;3.30;;;2.83;;
22929;SDS011;11630;42.660;23.292;2023-03-11T02:17:11;3.43;;;3.13;;
22929;SDS011;11630;42.660;23.292;2023-03-11T02:19:48;5.40;;;3.23;;
22929;SDS011;11630;42.660;23.292;2023-03-11T02:22:23;7.13;;;3.70;;
22929;SDS011;11630;42.660;23.292;2023-03-11T02:27:46;2.00;;;1.83;;
22929;SDS011;11630;42.660;23.292;2023-03-11T02:30:18;0.80;;;0.80;;
22929;SDS011;11630;42.660;23.292;2023-03-11T02:32:50;0.80;;;0.80;;
22929;SDS011;11630;42.660;23.292;2023-03-11T02:35:21;0.90;;;0.90;;
22929;SDS011;11630;42.660;23.292;2023-03-11T02:37:52;0.80;;;0.80;;
22929;SDS011;11630;42.660;23.292;2023-03-11T02:43:02;0.83;;;0.83;;
22929;SDS011;11630;42.660;23.292;2023-03-11T02:45:32;0.70;;;0.70;;
22929;SDS011;11630;42.660;23.292;2023-03-11T02:48:03;0.50;;;0.50;;
22929;SDS011;11630;42.660;23.292;2023-03-11T02:50:35;3.10;;;0.80;;
22929;SDS011;11630;42.660;23.292;2023-03-11T02:53:06;0.70;;;0.70;;
22929;SDS011;11630;42.660;23.292;2023-03-11T02:55:37;0.70;;;0.70;;
22929;SDS011;11630;42.660;23.292;2023-03-11T02:58:07;0.60;;;0.60;;
22929;SDS011;11630;42.660;23.292;2023-03-11T03:00:38;0.80;;;0.70;;
22929;SDS011;11630;42.660;23.292;2023-03-11T03:03:09;0.70;;;0.70;;
22929;SDS011;11630;42.660;23.292;2023-03-11T03:05:40;0.93;;;0.80;;
22929;SDS011;11630;42.660;23.292;2023-03-11T03:08:10;0.70;;;0.70;;
22929;SDS011;11630;42.660;23.292;2023-03-11T03:10:40;0.90;;;0.90;;
22929;SDS011;11630;42.660;23.292;2023-03-11T03:13:11;0.60;;;0.60;;
22929;SDS011;11630;42.660;23.292;2023-03-11T03:15:42;0.60;;;0.60;;
22929;SDS011;11630;42.660;23.292;2023-03-11T03:18:13;0.60;;;0.60;;
22929;SDS011;11630;42.660;23.292;2023-03-11T03:20:44;0.77;;;0.73;;
22929;SDS011;11630;42.660;23.292;2023-03-11T03:23:14;0.50;;;0.50;;
22929;SDS011;11630;42.660;23.292;2023-03-11T03:25:45;0.60;;;0.60;;
22929;SDS011;11630;42.660;23.292;2023-03-11T03:28:15;1.17;;;0.67;;
22929;SDS011;11630;42.660;23.292;2023-03-11T03:30:45;0.50;;;0.50;;
22929;SDS011;11630;42.660;23.292;2023-03-11T03:33:16;0.50;;;0.50;;
22929;SDS011;11630;42.660;23.292;2023-03-11T03:35:46;0.70;;;0.70;;
22929;SDS011;11630;42.660;23.292;2023-03-11T03:38:17;0.83;;;0.70;;
22929;SDS011;11630;42.660;23.292;2023-03-11T03:40:48;1.33;;;0.70;;
22929;SDS011;11630;42.660;23.292;2023-03-11T03:43:19;0.53;;;0.53;;
22929;SDS011;11630;42.660;23.292;2023-03-11T03:45:59;0.50;;;0.50;;
22929;SDS011;11630;42.660;23.292;2023-03-11T03:48:29;1.13;;;0.70;;
22929;SDS011;11630;42.660;23.292;2023-03-11T03:51:01;0.60;;;0.60;;
22929;SDS011;11630;42.660;23.292;2023-03-11T03:53:33;1.80;;;0.67;;
22929;SDS011;11630;42.660;23.292;2023-03-11T03:56:04;0.70;;;0.70;;
22929;SDS011;11630;42.660;23.292;2023-03-11T03:58:36;0.60;;;0.60;;
22929;SDS011;11630;42.660;23.292;2023-03-11T04:01:07;0.80;;;0.80;;
22929;SDS011;11630;42.660;23.292;2023-03-11T04:03:40;0.83;;;0.73;;
22929;SDS011;11630;42.660;23.292;2023-03-11T04:06:14;0.60;;;0.60;;
22929;SDS011;11630;42.660;23.292;2023-03-11T04:08:49;1.20;;;1.10;;
22929;SDS011;11630;42.660;23.292;2023-03-11T04:11:20;0.70;;;0.70;;
22929;SDS011;11630;42.660;23.292;2023-03-11T04:13:52;2.57;;;0.80;;
22929;SDS011;11630;42.660;23.292;2023-03-11T04:16:22;0.77;;;0.77;;
22929;SDS011;11630;42.660;23.292;2023-03-11T04:18:54;0.70;;;0.70;;
22929;SDS011;11630;42.660;23.292;2023-03-11T04:21:25;0.90;;;0.90;;
22929;SDS011;11630;42.660;23.292;2023-03-11T04:23:56;1.00;;;1.00;;
22929;SDS011;11630;42.660;23.292;2023-03-11T04:26:27;0.77;;;0.77;;
22929;SDS011;11630;42.660;23.292;2023-03-11T04:28:58;0.80;;;0.80;;
22929;SDS011;11630;42.660;23.292;2023-03-11T04:31:29;0.50;;;0.50;;
22929;SDS011;11630;42.660;23.292;2023-03-11T04:33:58;0.73;;;0.70;;
22929;SDS011;11630;42.660;23.292;2023-03-11T04:36:29;0.67;;;0.67;;
22929;SDS011;11630;42.660;23.292;2023-03-11T04:38:59;0.60;;;0.60;;
22929;SDS011;11630;42.660;23.292;2023-03-11T04:41:30;0.73;;;0.60;;
22929;SDS011;11630;42.660;23.292;2023-03-11T04:44:01;2.40;;;0.70;;
22929;SDS011;11630;42.660;23.292;2023-03-11T04:46:32;1.33;;;0.70;;
22929;SDS011;11630;42.660;23.292;2023-03-11T04:49:03;0.50;;;0.50;;
22929;SDS011;11630;42.660;23.292;2023-03-11T04:51:34;0.67;;;0.67;;
22929;SDS011;11630;42.660;23.292;2023-03-11T04:54:08;1.03;;;0.70;;
22929;SDS011;11630;42.660;23.292;2023-03-11T04:56:37;0.80;;;0.80;;
22929;SDS011;11630;42.660;23.292;2023-03-11T04:59:08;0.60;;;0.60;;
22929;SDS011;11630;42.660;23.292;2023-03-11T05:01:39;0.60;;;0.60;;
22929;SDS011;11630;42.660;23.292;2023-03-11T05:04:10;0.50;;;0.50;;
22929;SDS011;11630;42.660;23.292;2023-03-11T05:06:41;0.93;;;0.70;;
22929;SDS011;11630;42.660;23.292;2023-03-11T05:09:14;0.60;;;0.60;;
22929;SDS011;11630;42.660;23.292;2023-03-11T05:11:45;2.23;;;1.00;;
22929;SDS011;11630;42.660;23.292;2023-03-11T05:14:19;0.60;;;0.60;;
22929;SDS011;11630;42.660;23.292;2023-03-11T05:16:50;1.10;;;1.00;;
22929;SDS011;11630;42.660;23.292;2023-03-11T05:19:21;0.87;;;0.87;;
22929;SDS011;11630;42.660;23.292;2023-03-11T05:21:59;0.97;;;0.97;;
22929;SDS011;11630;42.660;23.292;2023-03-11T05:24:30;0.70;;;0.70;;
22929;SDS011;11630;42.660;23.292;2023-03-11T05:27:04;1.33;;;1.23;;
22929;SDS011;11630;42.660;23.292;2023-03-11T05:29:34;1.10;;;0.70;;
22929;SDS011;11630;42.660;23.292;2023-03-11T05:32:04;0.83;;;0.83;;
22929;SDS011;11630;42.660;23.292;2023-03-11T05:34:36;0.80;;;0.80;;
22929;SDS011;11630;42.660;23.292;2023-03-11T05:37:07;0.90;;;0.90;;
22929;SDS011;11630;42.660;23.292;2023-03-11T05:39:37;1.10;;;0.63;;
22929;SDS011;11630;42.660;23.292;2023-03-11T05:42:08;0.70;;;0.70;;
22929;SDS011;11630;42.660;23.292;2023-03-11T05:44:38;0.70;;;0.70;;
22929;SDS011;11630;42.660;23.292;2023-03-11T05:47:08;2.70;;;1.17;;
22929;SDS011;11630;42.660;23.292;2023-03-11T05:49:39;0.60;;;0.60;;
22929;SDS011;11630;42.660;23.292;2023-03-11T05:52:09;1.27;;;0.80;;
22929;SDS011;11630;42.660;23.292;2023-03-11T05:54:40;0.80;;;0.80;;
22929;SDS011;11630;42.660;23.292;2023-03-11T05:57:11;0.90;;;0.90;;
22929;SDS011;11630;42.660;23.292;2023-03-11T05:59:41;1.27;;;1.17;;
22929;SDS011;11630;42.660;23.292;2023-03-11T06:02:12;0.77;;;0.77;;
22929;SDS011;11630;42.660;23.292;2023-03-11T06:04:42;1.20;;;1.07;;
22929;SDS011;11630;42.660;23.292;2023-03-11T06:07:15;0.90;;;0.90;;
22929;SDS011;11630;42.660;23.292;2023-03-11T06:09:49;1.03;;;1.03;;
22929;SDS011;11630;42.660;23.292;2023-03-11T06:12:19;0.90;;;0.90;;
22929;SDS011;11630;42.660;23.292;2023-03-11T06:14:49;1.40;;;1.30;;
22929;SDS011;11630;42.660;23.292;2023-03-11T06:17:22;1.97;;;1.03;;
22929;SDS011;11630;42.660;23.292;2023-03-11T06:19:53;1.13;;;1.00;;
22929;SDS011;11630;42.660;23.292;2023-03-11T06:22:24;1.60;;;1.20;;
22929;SDS011;11630;42.660;23.292;2023-03-11T06:24:54;1.13;;;1.07;;
22929;SDS011;11630;42.660;23.292;2023-03-11T06:27:24;1.00;;;1.00;;
22929;SDS011;11630;42.660;23.292;2023-03-11T06:29:55;3.10;;;1.10;;
22929;SDS011;11630;42.660;23.292;2023-03-11T06:32:26;1.00;;;1.00;;
22929;SDS011;11630;42.660;23.292;2023-03-11T06:34:57;1.20;;;1.10;;
22929;SDS011;11630;42.660;23.292;2023-03-11T06:37:31;0.90;;;0.90;;
22929;SDS011;11630;42.660;23.292;2023-03-11T06:40:05;0.53;;;0.53;;
22929;SDS011;11630;42.660;23.292;2023-03-11T06:42:37;0.70;;;0.70;;
22929;SDS011;11630;42.660;23.292;2023-03-11T06:45:08;0.67;;;0.67;;
22929;SDS011;11630;42.660;23.292;2023-03-11T06:47:39;1.53;;;0.90;;
22929;SDS011;11630;42.660;23.292;2023-03-11T06:50:11;1.13;;;0.90;;
22929;SDS011;11630;42.660;23.292;2023-03-11T06:52:42;1.70;;;1.10;;
22929;SDS011;11630;42.660;23.292;2023-03-11T06:55:12;2.70;;;1.00;;
22929;SDS011;11630;42.660;23.292;2023-03-11T06:57:42;2.27;;;1.33;;
22929;SDS011;11630;42.660;23.292;2023-03-11T07:00:12;3.33;;;1.17;;
22929;SDS011;11630;42.660;23.292;2023-03-11T07:02:43;1.33;;;0.90;;
22929;SDS011;11630;42.660;23.292;2023-03-11T07:05:12;2.33;;;0.80;;
22929;SDS011;11630;42.660;23.292;2023-03-11T07:07:43;5.83;;;0.87;;
22929;SDS011;11630;42.660;23.292;2023-03-11T07:10:16;0.77;;;0.77;;
22929;SDS011;11630;42.660;23.292;2023-03-11T07:12:47;0.70;;;0.70;;
22929;SDS011;11630;42.660;23.292;2023-03-11T07:15:18;0.70;;;0.70;;
22929;SDS011;11630;42.660;23.292;2023-03-11T07:17:49;1.17;;;1.00;;
22929;SDS011;11630;42.660;23.292;2023-03-11T07:20:20;1.33;;;1.00;;
22929;SDS011;11630;42.660;23.292;2023-03-11T07:22:51;1.50;;;1.40;;
22929;SDS011;11630;42.660;23.292;2023-03-11T07:25:21;2.30;;;1.67;;
22929;SDS011;11630;42.660;23.292;2023-03-11T07:27:51;2.33;;;1.57;;
22929;SDS011;11630;42.660;23.292;2023-03-11T07:30:22;2.50;;;2.30;;
22929;SDS011;11630;42.660;23.292;2023-03-11T07:32:54;1.67;;;1.30;;
22929;SDS011;11630;42.660;23.292;2023-03-11T07:35:25;1.10;;;1.07;;
22929;SDS011;11630;42.660;23.292;2023-03-11T07:37:55;2.03;;;1.20;;
22929;SDS011;11630;42.660;23.292;2023-03-11T07:40:26;1.20;;;1.07;;
22929;SDS011;11630;42.660;23.292;2023-03-11T07:42:57;1.17;;;1.13;;
22929;SDS011;11630;42.660;23.292;2023-03-11T07:45:27;1.40;;;1.30;;
22929;SDS011;11630;42.660;23.292;2023-03-11T07:47:58;0.70;;;0.70;;
22929;SDS011;11630;42.660;23.292;2023-03-11T07:50:28;1.60;;;1.03;;
22929;SDS011;11630;42.660;23.292;2023-03-11T07:53:01;5.77;;;1.60;;
22929;SDS011;11630;42.660;23.292;2023-03-11T07:55:32;2.00;;;1.13;;
22929;SDS011;11630;42.660;23.292;2023-03-11T07:58:02;1.00;;;0.90;;
22929;SDS011;11630;42.660;23.292;2023-03-11T08:00:33;2.13;;;0.90;;
22929;SDS011;11630;42.660;23.292;2023-03-11T08:03:04;3.43;;;1.23;;
22929;SDS011;11630;42.660;23.292;2023-03-11T08:05:35;2.13;;;0.97;;
22929;SDS011;11630;42.660;23.292;2023-03-11T08:08:07;0.70;;;0.70;;
22929;SDS011;11630;42.660;23.292;2023-03-11T08:10:38;2.20;;;1.20;;
22929;SDS011;11630;42.660;23.292;2023-03-11T08:13:08;0.80;;;0.80;;
22929;SDS011;11630;42.660;23.292;2023-03-11T08:15:39;1.77;;;1.10;;
22929;SDS011;11630;42.660;23.292;2023-03-11T08:18:11;1.20;;;1.00;;
22929;SDS011;11630;42.660;23.292;2023-03-11T08:20:41;1.07;;;0.90;;
22929;SDS011;11630;42.660;23.292;2023-03-11T08:23:12;1.00;;;1.00;;
22929;SDS011;11630;42.660;23.292;2023-03-11T08:25:43;1.23;;;1.17;;
22929;SDS011;11630;42.660;23.292;2023-03-11T08:28:15;1.03;;;1.03;;
22929;SDS011;11630;42.660;23.292;2023-03-11T08:30:46;3.93;;;1.27;;
22929;SDS011;11630;42.660;23.292;2023-03-11T08:33:15;1.70;;;1.50;;
22929;SDS011;11630;42.660;23.292;2023-03-11T08:35:46;1.30;;;1.23;;
22929;SDS011;11630;42.660;23.292;2023-03-11T08:38:16;1.00;;;1.00;;
22929;SDS011;11630;42.660;23.292;2023-03-11T08:40:47;4.07;;;1.27;;
22929;SDS011;11630;42.660;23.292;2023-03-11T08:43:18;7.83;;;1.20;;
22929;SDS011;11630;42.660;23.292;2023-03-11T08:45:48;0.90;;;0.90;;
22929;SDS011;11630;42.660;23.292;2023-03-11T08:48:20;4.83;;;1.40;;
22929;SDS011;11630;42.660;23.292;2023-03-11T08:50:51;2.00;;;1.00;;
22929;SDS011;11630;42.660;23.292;2023-03-11T08:53:23;1.90;;;1.00;;
22929;SDS011;11630;42.660;23.292;2023-03-11T08:55:53;1.57;;;1.37;;
22929;SDS011;11630;42.660;23.292;2023-03-11T08:58:24;2.00;;;1.13;;
22929;SDS011;11630;42.660;23.292;2023-03-11T09:00:55;3.20;;;1.40;;
22929;SDS011;11630;42.660;23.292;2023-03-11T09:03:26;1.00;;;1.00;;
22929;SDS011;11630;42.660;23.292;2023-03-11T09:06:01;2.63;;;0.90;;
22929;SDS011;11630;42.660;23.292;2023-03-11T09:08:33;3.77;;;1.17;;
22929;SDS011;11630;42.660;23.292;2023-03-11T09:11:03;1.77;;;0.97;;
22929;SDS011;11630;42.660;23.292;2023-03-11T09:13:33;1.77;;;1.10;;
22929;SDS011;11630;42.660;23.292;2023-03-11T09:16:04;3.07;;;1.00;;
22929;SDS011;11630;42.660;23.292;2023-03-11T09:18:35;1.60;;;1.23;;
22929;SDS011;11630;42.660;23.292;2023-03-11T09:21:06;1.33;;;1.23;;
22929;SDS011;11630;42.660;23.292;2023-03-11T09:23:38;7.87;;;1.40;;
22929;SDS011;11630;42.660;23.292;2023-03-11T09:26:09;1.37;;;1.27;;
22929;SDS011;11630;42.660;23.292;2023-03-11T09:28:43;1.53;;;1.10;;
22929;SDS011;11630;42.660;23.292;2023-03-11T09:31:14;1.40;;;1.30;;
22929;SDS011;11630;42.660;23.292;2023-03-11T09:33:45;2.67;;;1.40;;
22929;SDS011;11630;42.660;23.292;2023-03-11T09:36:17;1.67;;;1.30;;
22929;SDS011;11630;42.660;23.292;2023-03-11T09:38:48;3.17;;;1.87;;
22929;SDS011;11630;42.660;23.292;2023-03-11T09:41:25;8.43;;;1.43;;
22929;SDS011;11630;42.660;23.292;2023-03-11T09:49:30;1.73;;;0.90;;
22929;SDS011;11630;42.660;23.292;2023-03-11T09:54:50;3.73;;;1.40;;
22929;SDS011;11630;42.660;23.292;2023-03-11T09:57:22;1.37;;;1.07;;
22929;SDS011;11630;42.660;23.292;2023-03-11T09:59:54;1.70;;;0.90;;
22929;SDS011;11630;42.660;23.292;2023-03-11T10:02:26;5.70;;;1.50;;
22929;SDS011;11630;42.660;23.292;2023-03-11T10:05:05;1.20;;;1.10;;
22929;SDS011;11630;42.660;23.292;2023-03-11T10:07:40;1.27;;;1.17;;
22929;SDS011;11630;42.660;23.292;2023-03-11T10:10:14;4.37;;;1.40;;
22929;SDS011;11630;42.660;23.292;2023-03-11T10:18:15;11.07;;;2.70;;
22929;SDS011;11630;42.660;23.292;2023-03-11T10:20:53;1.37;;;1.27;;
22929;SDS011;11630;42.660;23.292;2023-03-11T10:23:25;4.73;;;1.33;;
22929;SDS011;11630;42.660;23.292;2023-03-11T10:25:59;1.67;;;1.33;;
22929;SDS011;11630;42.660;23.292;2023-03-11T10:28:34;3.63;;;1.03;;
22929;SDS011;11630;42.660;23.292;2023-03-11T10:31:18;7.60;;;1.43;;
22929;SDS011;11630;42.660;23.292;2023-03-11T10:33:53;2.27;;;1.23;;
22929;SDS011;11630;42.660;23.292;2023-03-11T10:36:28;3.30;;;1.37;;
22929;SDS011;11630;42.660;23.292;2023-03-11T10:38:58;3.40;;;1.30;;
22929;SDS011;11630;42.660;23.292;2023-03-11T10:41:30;1.23;;;0.90;;
22929;SDS011;11630;42.660;23.292;2023-03-11T10:46:45;2.83;;;1.20;;
22929;SDS011;11630;42.660;23.292;2023-03-11T10:49:16;3.07;;;1.03;;
22929;SDS011;11630;42.660;23.292;2023-03-11T10:51:49;2.37;;;0.97;;
22929;SDS011;11630;42.660;23.292;2023-03-11T10:54:22;0.97;;;0.90;;
22929;SDS011;11630;42.660;23.292;2023-03-11T10:57:00;2.07;;;1.40;;
22929;SDS011;11630;42.660;23.292;2023-03-11T10:59:37;3.83;;;1.30;;
22929;SDS011;11630;42.660;23.292;2023-03-11T11:02:20;2.00;;;1.30;;
22929;SDS011;11630;42.660;23.292;2023-03-11T11:05:05;2.63;;;1.77;;
22929;SDS011;11630;42.660;23.292;2023-03-11T11:07:50;8.47;;;3.10;;
22929;SDS011;11630;42.660;23.292;2023-03-11T11:10:25;6.30;;;2.20;;
22929;SDS011;11630;42.660;23.292;2023-03-11T11:12:58;1.33;;;1.23;;
22929;SDS011;11630;42.660;23.292;2023-03-11T11:15:34;2.90;;;1.40;;
22929;SDS011;11630;42.660;23.292;2023-03-11T11:18:14;2.63;;;1.50;;
22929;SDS011;11630;42.660;23.292;2023-03-11T11:21:01;2.87;;;1.27;;
22929;SDS011;11630;42.660;23.292;2023-03-11T11:26:22;1.40;;;1.30;;
22929;SDS011;11630;42.660;23.292;2023-03-11T11:29:24;6.40;;;1.67;;
22929;SDS011;11630;42.660;23.292;2023-03-11T11:31:35;2.30;;;1.30;;
22929;SDS011;11630;42.660;23.292;2023-03-11T11:36:57;4.23;;;1.50;;
22929;SDS011;11630;42.660;23.292;2023-03-11T11:39:35;1.63;;;1.33;;
22929;SDS011;11630;42.660;23.292;2023-03-11T11:42:13;1.07;;;1.07;;
22929;SDS011;11630;42.660;23.292;2023-03-11T11:44:46;2.57;;;1.43;;
22929;SDS011;11630;42.660;23.292;2023-03-11T11:47:22;3.60;;;1.30;;
22929;SDS011;11630;42.660;23.292;2023-03-11T11:49:56;1.90;;;1.70;;
22929;SDS011;11630;42.660;23.292;2023-03-11T11:52:32;6.00;;;2.20;;
22929;SDS011;11630;42.660;23.292;2023-03-11T11:55:27;1.47;;;1.27;;
22929;SDS011;11630;42.660;23.292;2023-03-11T11:57:59;3.20;;;1.53;;
22929;SDS011;11630;42.660;23.292;2023-03-11T12:00:36;2.17;;;1.33;;
22929;SDS011;11630;42.660;23.292;2023-03-11T12:05:55;2.60;;;1.50;;
22929;SDS011;11630;42.660;23.292;2023-03-11T12:11:22;3.27;;;1.40;;
22929;SDS011;11630;42.660;23.292;2023-03-11T12:22:30;2.60;;;1.37;;
22929;SDS011;11630;42.660;23.292;2023-03-11T12:28:22;2.20;;;1.30;;
22929;SDS011;11630;42.660;23.292;2023-03-11T12:30:57;1.50;;;1.17;;
22929;SDS011;11630;42.660;23.292;2023-03-11T12:39:01;2.50;;;1.17;;
22929;SDS011;11630;42.660;23.292;2023-03-11T12:41:36;1.50;;;1.27;;
22929;SDS011;11630;42.660;23.292;2023-03-11T12:44:23;1.80;;;1.27;;
22929;SDS011;11630;42.660;23.292;2023-03-11T12:49:45;3.30;;;1.83;;
22929;SDS011;11630;42.660;23.292;2023-03-11T12:52:20;1.97;;;1.20;;
22929;SDS011;11630;42.660;23.292;2023-03-11T13:03:31;5.17;;;1.10;;
22929;SDS011;11630;42.660;23.292;2023-03-11T13:09:13;2.07;;;1.37;;
22929;SDS011;11630;42.660;23.292;2023-03-11T13:11:46;2.70;;;1.40;;
22929;SDS011;11630;42.660;23.292;2023-03-11T13:14:25;2.70;;;1.30;;
22929;SDS011;11630;42.660;23.292;2023-03-11T13:19:56;5.20;;;2.07;;
22929;SDS011;11630;42.660;23.292;2023-03-11T13:25:31;3.20;;;2.00;;
22929;SDS011;11630;42.660;23.292;2023-03-11T13:28:31;2.57;;;1.60;;
22929;SDS011;11630;42.660;23.292;2023-03-11T13:31:12;5.27;;;1.70;;
22929;SDS011;11630;42.660;23.292;2023-03-11T13:33:54;4.97;;;2.00;;
22929;SDS011;11630;42.660;23.292;2023-03-11T13:39:44;2.37;;;0.90;;
22929;SDS011;11630;42.660;23.292;2023-03-11T13:42:19;3.57;;;1.40;;
22929;SDS011;11630;42.660;23.292;2023-03-11T13:45:07;2.30;;;1.33;;
22929;SDS011;11630;42.660;23.292;2023-03-11T13:47:38;1.53;;;1.30;;
22929;SDS011;11630;42.660;23.292;2023-03-11T13:50:58;1.60;;;1.50;;
22929;SDS011;11630;42.660;23.292;2023-03-11T13:52:46;1.10;;;1.00;;
22929;SDS011;11630;42.660;23.292;2023-03-11T13:55:19;1.87;;;1.50;;
22929;SDS011;11630;42.660;23.292;2023-03-11T13:57:51;3.03;;;1.50;;
22929;SDS011;11630;42.660;23.292;2023-03-11T14:00:26;2.77;;;1.30;;
22929;SDS011;11630;42.660;23.292;2023-03-11T14:03:00;3.93;;;1.80;;
22929;SDS011;11630;42.660;23.292;2023-03-11T14:05:33;2.37;;;2.00;;
22929;SDS011;11630;42.660;23.292;2023-03-11T14:10:58;2.83;;;1.80;;
22929;SDS011;11630;42.660;23.292;2023-03-11T14:13:30;1.83;;;1.67;;
22929;SDS011;11630;42.660;23.292;2023-03-11T14:19:05;6.77;;;1.77;;
22929;SDS011;11630;42.660;23.292;2023-03-11T14:21:40;1.50;;;1.40;;
22929;SDS011;11630;42.660;23.292;2023-03-11T14:24:21;3.20;;;1.63;;
22929;SDS011;11630;42.660;23.292;2023-03-11T14:26:54;2.60;;;1.80;;
22929;SDS011;11630;42.660;23.292;2023-03-11T14:29:29;2.70;;;1.80;;
22929;SDS011;11630;42.660;23.292;2023-03-11T14:32:13;3.87;;;2.07;;
22929;SDS011;11630;42.660;23.292;2023-03-11T14:34:49;3.43;;;2.00;;
22929;SDS011;11630;42.660;23.292;2023-03-11T14:37:23;3.90;;;2.73;;
22929;SDS011;11630;42.660;23.292;2023-03-11T14:39:59;3.83;;;2.67;;
22929;SDS011;11630;42.660;23.292;2023-03-11T14:42:34;4.40;;;2.50;;
22929;SDS011;11630;42.660;23.292;2023-03-11T14:47:50;2.47;;;1.47;;
22929;SDS011;11630;42.660;23.292;2023-03-11T14:50:18;4.43;;;1.83;;
22929;SDS011;11630;42.660;23.292;2023-03-11T14:55:31;2.27;;;1.90;;
22929;SDS011;11630;42.660;23.292;2023-03-11T14:58:10;2.87;;;2.60;;
22929;SDS011;11630;42.660;23.292;2023-03-11T15:00:44;2.90;;;1.10;;
22929;SDS011;11630;42.660;23.292;2023-03-11T15:03:34;1.67;;;1.33;;
22929;SDS011;11630;42.660;23.292;2023-03-11T15:05:55;2.13;;;1.73;;
22929;SDS011;11630;42.660;23.292;2023-03-11T15:08:30;1.93;;;1.00;;
22929;SDS011;11630;42.660;23.292;2023-03-11T15:11:16;3.80;;;1.60;;
22929;SDS011;11630;42.660;23.292;2023-03-11T15:13:42;2.17;;;1.80;;
22929;SDS011;11630;42.660;23.292;2023-03-11T15:16:35;2.50;;;1.90;;
22929;SDS011;11630;42.660;23.292;2023-03-11T15:18:52;2.20;;;1.90;;
22929;SDS011;11630;42.660;23.292;2023-03-11T15:21:22;6.10;;;2.27;;
22929;SDS011;11630;42.660;23.292;2023-03-11T15:24:00;3.10;;;2.23;;
22929;SDS011;11630;42.660;23.292;2023-03-11T15:26:34;3.53;;;2.97;;
22929;SDS011;11630;42.660;23.292;2023-03-11T15:29:12;8.20;;;3.27;;
22929;SDS011;11630;42.660;23.292;2023-03-11T15:31:44;5.77;;;2.93;;
22929;SDS011;11630;42.660;23.292;2023-03-11T15:47:28;4.13;;;2.40;;
22929;SDS011;11630;42.660;23.292;2023-03-11T15:49:57;3.17;;;2.23;;
22929;SDS011;11630;42.660;23.292;2023-03-11T15:52:29;3.33;;;2.23;;
22929;SDS011;11630;42.660;23.292;2023-03-11T15:55:00;4.33;;;2.73;;
22929;SDS011;11630;42.660;23.292;2023-03-11T15:57:31;6.43;;;2.80;;
22929;SDS011;11630;42.660;23.292;2023-03-11T16:00:02;4.50;;;2.90;;
22929;SDS011;11630;42.660;23.292;2023-03-11T16:02:34;5.30;;;4.13;;
22929;SDS011;11630;42.660;23.292;2023-03-11T16:05:10;4.90;;;4.40;;
22929;SDS011;11630;42.660;23.292;2023-03-11T16:07:45;5.67;;;5.07;;
22929;SDS011;11630;42.660;23.292;2023-03-11T16:10:18;4.73;;;4.27;;
22929;SDS011;11630;42.660;23.292;2023-03-11T16:12:49;5.53;;;5.03;;
22929;SDS011;11630;42.660;23.292;2023-03-11T16:15:20;6.83;;;6.23;;
22929;SDS011;11630;42.660;23.292;2023-03-11T16:17:53;6.67;;;5.93;;
22929;SDS011;11630;42.660;23.292;2023-03-11T16:20:25;5.93;;;5.43;;
22929;SDS011;11630;42.660;23.292;2023-03-11T16:22:58;6.93;;;5.90;;
22929;SDS011;11630;42.660;23.292;2023-03-11T16:25:35;8.33;;;6.10;;
22929;SDS011;11630;42.660;23.292;2023-03-11T16:28:04;6.00;;;5.07;;
22929;SDS011;11630;42.660;23.292;2023-03-11T16:30:35;6.07;;;5.37;;
22929;SDS011;11630;42.660;23.292;2023-03-11T16:33:06;4.57;;;3.37;;
22929;SDS011;11630;42.660;23.292;2023-03-11T16:35:36;2.63;;;2.43;;
22929;SDS011;11630;42.660;23.292;2023-03-11T16:38:07;3.57;;;3.27;;
22929;SDS011;11630;42.660;23.292;2023-03-11T16:40:38;3.33;;;3.00;;
22929;SDS011;11630;42.660;23.292;2023-03-11T16:43:09;4.03;;;3.20;;
22929;SDS011;11630;42.660;23.292;2023-03-11T16:45:41;3.13;;;2.83;;